地図

経路データ

SID SEASON NUMBER BASIN SUBBASIN NAME ISO_TIME NATURE LAT LON WMO_WIND WMO_PRES WMO_AGENCY TRACK_TYPE DIST2LAND LANDFALL IFLAG USA_AGENCY USA_ATCF_ID USA_LAT USA_LON USA_RECORD USA_STATUS USA_WIND USA_PRES USA_SSHS USA_R34_NE USA_R34_SE USA_R34_SW USA_R34_NW USA_R50_NE USA_R50_SE USA_R50_SW USA_R50_NW USA_R64_NE USA_R64_SE USA_R64_SW USA_R64_NW USA_POCI USA_ROCI USA_RMW USA_EYE TOKYO_LAT TOKYO_LON TOKYO_GRADE TOKYO_WIND TOKYO_PRES TOKYO_R50_DIR TOKYO_R50_LONG TOKYO_R50_SHORT TOKYO_R30_DIR TOKYO_R30_LONG TOKYO_R30_SHORT TOKYO_LAND CMA_LAT CMA_LON CMA_CAT CMA_WIND CMA_PRES HKO_LAT HKO_LON HKO_CAT HKO_WIND HKO_PRES NEWDELHI_LAT NEWDELHI_LON NEWDELHI_GRADE NEWDELHI_WIND NEWDELHI_PRES NEWDELHI_CI NEWDELHI_DP NEWDELHI_POCI REUNION_LAT REUNION_LON REUNION_TYPE REUNION_WIND REUNION_PRES REUNION_TNUM REUNION_CI REUNION_RMW REUNION_R34_NE REUNION_R34_SE REUNION_R34_SW REUNION_R34_NW REUNION_R50_NE REUNION_R50_SE REUNION_R50_SW REUNION_R50_NW REUNION_R64_NE REUNION_R64_SE REUNION_R64_SW REUNION_R64_NW BOM_LAT BOM_LON BOM_TYPE BOM_WIND BOM_PRES BOM_TNUM BOM_CI BOM_RMW BOM_R34_NE BOM_R34_SE BOM_R34_SW BOM_R34_NW BOM_R50_NE BOM_R50_SE BOM_R50_SW BOM_R50_NW BOM_R64_NE BOM_R64_SE BOM_R64_SW BOM_R64_NW BOM_ROCI BOM_POCI BOM_EYE BOM_POS_METHOD BOM_PRES_METHOD NADI_LAT NADI_LON NADI_CAT NADI_WIND NADI_PRES WELLINGTON_LAT WELLINGTON_LON WELLINGTON_WIND WELLINGTON_PRES DS824_LAT DS824_LON DS824_STAGE DS824_WIND DS824_PRES TD9636_LAT TD9636_LON TD9636_STAGE TD9636_WIND TD9636_PRES TD9635_LAT TD9635_LON TD9635_WIND TD9635_PRES TD9635_ROCI NEUMANN_LAT NEUMANN_LON NEUMANN_CLASS NEUMANN_WIND NEUMANN_PRES MLC_LAT MLC_LON MLC_CLASS MLC_WIND MLC_PRES USA_GUST BOM_GUST BOM_GUST_PER REUNION_GUST REUNION_GUST_PER USA_SEAHGT USA_SEARAD_NE USA_SEARAD_SE USA_SEARAD_SW USA_SEARAD_NW STORM_SPEED STORM_DIR
1920182N19117 1920 20 WP MM NOT_NAMED 1920-06-30 10:00:00 NR 18.6000 116.600 main 406 406 __________O___ -1 18.6000 116.600 7 3 272
1920182N19117 1920 20 WP MM NOT_NAMED 1920-06-30 12:00:00 NR 18.6032 116.499 main 416 416 __________P___ -1 18.6032 116.499 7 3 272
1920182N19117 1920 20 WP MM NOT_NAMED 1920-06-30 15:00:00 NR 18.6068 116.341 main 437 437 __________P___ -1 18.6068 116.341 7 3 271
1920182N19117 1920 20 WP MM NOT_NAMED 1920-06-30 18:00:00 NR 18.6073 116.168 main 447 447 __________P___ -1 18.6073 116.168 7 3 269
1920182N19117 1920 20 WP MM NOT_NAMED 1920-06-30 21:00:00 NR 18.6029 115.972 main 450 446 __________P___ -1 18.6029 115.972 7 4 268
1920182N19117 1920 20 WP MM NOT_NAMED 1920-06-30 22:00:00 NR 18.6000 115.900 main 446 438 __________O___ -1 18.6000 115.900 3 4 267
1920182N19117 1920 20 WP MM NOT_NAMED 1920-07-01 00:00:00 NR 18.5922 115.745 main 438 432 __________P___ -1 18.5922 115.745 3 5 267
1920182N19117 1920 20 WP MM NOT_NAMED 1920-07-01 03:00:00 NR 18.5803 115.494 main 432 424 __________P___ -1 18.5803 115.494 3 5 268
1920182N19117 1920 20 WP MM NOT_NAMED 1920-07-01 06:00:00 NR 18.5764 115.234 main 424 420 __________P___ -1 18.5764 115.234 3 5 271
1920182N19117 1920 20 WP MM NOT_NAMED 1920-07-01 09:00:00 NR 18.5900 114.980 main 420 418 __________P___ -1 18.5900 114.980 3 5 274
1920182N19117 1920 20 WP MM NOT_NAMED 1920-07-01 10:00:00 NR 18.6000 114.900 main 418 414 __________O___ -1 18.6000 114.900 4 4 278
1920182N19117 1920 20 WP MM NOT_NAMED 1920-07-01 12:00:00 NR 18.6223 114.753 main 414 381 __________P___ -1 18.6223 114.753 4 4 282
1920182N19117 1920 20 WP MM NOT_NAMED 1920-07-01 15:00:00 NR 18.6745 114.544 main 381 357 __________P___ -1 18.6745 114.544 4 4 289
1920182N19117 1920 20 WP MM NOT_NAMED 1920-07-01 18:00:00 NR 18.7520 114.348 main 357 344 __________P___ -1 18.7520 114.348 4 4 297
1920182N19117 1920 20 WP MM NOT_NAMED 1920-07-01 21:00:00 NR 18.8579 114.161 main 344 334 __________P___ -1 18.8579 114.161 4 4 302
1920182N19117 1920 20 WP MM NOT_NAMED 1920-07-01 22:00:00 NR 18.9000 114.100 main 334 321 __________O___ -1 18.9000 114.100 4 4 313
1920182N19117 1920 20 WP MM NOT_NAMED 1920-07-02 00:00:00 NR 19.0068 113.988 main 321 297 __________P___ -1 19.0068 113.988 4 5 318
1920182N19117 1920 20 WP MM NOT_NAMED 1920-07-02 03:00:00 NR 19.1926 113.827 main 297 283 __________P___ -1 19.1926 113.827 4 5 320
1920182N19117 1920 20 WP MM NOT_NAMED 1920-07-02 06:00:00 NR 19.3842 113.660 main 283 261 __________P___ -1 19.3842 113.660 4 5 317
1920182N19117 1920 20 WP MM NOT_NAMED 1920-07-02 09:00:00 NR 19.5534 113.471 main 261 251 __________P___ -1 19.5534 113.471 4 5 311
1920182N19117 1920 20 WP MM NOT_NAMED 1920-07-02 10:00:00 NR 19.6000 113.400 main 251 240 __________O___ -1 19.6000 113.400 4 5 300
1920182N19117 1920 20 WP MM NOT_NAMED 1920-07-02 12:00:00 NR 19.6669 113.260 main 241 209 __________P___ -1 19.6669 113.260 4 5 291
1920182N19117 1920 20 WP MM NOT_NAMED 1920-07-02 15:00:00 NR 19.7358 113.026 main 209 189 __________P___ -1 19.7358 113.026 4 5 283
1920182N19117 1920 20 WP MM NOT_NAMED 1920-07-02 18:00:00 NR 19.7757 112.751 main 189 148 __________P___ -1 19.7757 112.751 4 6 276
1920182N19117 1920 20 WP MM NOT_NAMED 1920-07-02 21:00:00 NR 19.7960 112.423 main 148 137 __________P___ -1 19.7960 112.423 4 6 273
1920182N19117 1920 20 WP MM NOT_NAMED 1920-07-02 22:00:00 NR 19.8000 112.300 main 137 107 __________O___ -1 19.8000 112.300 4 7 271
1920182N19117 1920 20 WP MM NOT_NAMED 1920-07-03 00:00:00 NR 19.8011 112.031 main 107 66 __________P___ -1 19.8011 112.031 4 8 269
1920182N19117 1920 20 WP MM NOT_NAMED 1920-07-03 03:00:00 NR 19.7897 111.578 main 66 20 __________P___ -1 19.7897 111.578 4 9 269
1920182N19117 1920 20 WP MM NOT_NAMED 1920-07-03 06:00:00 NR 19.7794 111.084 main 20 0 __________P___ -1 19.7794 111.084 4 9 270
1920182N19117 1920 20 WP MM NOT_NAMED 1920-07-03 09:00:00 NR 19.7890 110.571 main 0 0 __________P___ -1 19.7890 110.571 4 10 272
1920182N19117 1920 20 WP MM NOT_NAMED 1920-07-03 10:00:00 NR 19.8000 110.400 main 0 0 __________O___ -1 19.8000 110.400 4 10 276
1920182N19117 1920 20 WP MM NOT_NAMED 1920-07-03 12:00:00 NR 19.8363 110.060 main 0 0 __________P___ -1 19.8363 110.060 4 10 279
1920182N19117 1920 20 WP MM NOT_NAMED 1920-07-03 15:00:00 NR 19.9211 109.558 main 0 0 __________P___ -1 19.9211 109.558 4 10 282
1920182N19117 1920 20 WP MM NOT_NAMED 1920-07-03 18:00:00 NR 20.0320 109.060 main 30 38 __________P___ -1 20.0320 109.060 4 10 284
1920182N19117 1920 20 WP MM NOT_NAMED 1920-07-03 21:00:00 NR 20.1571 108.565 main 84 88 __________P___ -1 20.1571 108.565 4 10 285
1920182N19117 1920 20 WP MM NOT_NAMED 1920-07-03 22:00:00 NR 20.2000 108.400 main 94 __________O___ -1 20.2000 108.400 4 10 286

デジタル台風データ・検索

IBTrACS Databaseについて

本データベースは、米国NOAAが公開する1842年以降の世界の熱帯低気圧のベストトラックデータアーカイブInternational Best Track Archive for Climate Stewardship (IBTrACS)を、ウェブで閲覧しやすい形式に変換したものです。

最終更新日:2021-11-26